Time;durP1;ratioP1;P1;durP2;ratioP2;P2;SDS_P1;SDS_P2;PMS_P1;PMS_P2;Temp;Humidity;BMP_temperature;BMP_pressure;BME280_temperature;BME280_humidity;BME280_pressure;Samples;Min_cycle;Max_cycle;Signal;HPM_P1;HPM_P2
2023/04/19 00:00:03;;;;;;;10.97;9.87;;;;;;;8.89;74.10;96646.34;4990372;28;20258;-68
2023/04/19 00:02:29;;;;;;;13.20;11.20;;;;;;;8.74;74.66;96638.16;4990285;28;20265;-68
2023/04/19 00:04:54;;;;;;;12.97;11.07;;;;;;;8.71;74.75;96644.34;4990432;28;20925;-67
2023/04/19 00:07:19;;;;;;;12.33;11.03;;;;;;;8.72;75.75;96635.59;4989982;28;20188;-66
2023/04/19 00:09:45;;;;;;;14.60;12.30;;;;;;;8.79;74.44;96638.88;4990282;28;20177;-67
2023/04/19 00:12:10;;;;;;;12.73;11.20;;;;;;;8.78;74.51;96635.38;4990065;28;20192;-67
2023/04/19 00:14:36;;;;;;;13.27;11.30;;;;;;;8.59;75.99;96635.13;4990158;28;20168;-67
2023/04/19 00:17:01;;;;;;;13.47;10.93;;;;;;;8.54;75.77;96631.81;4990052;28;20639;-68
2023/04/19 00:19:26;;;;;;;12.83;10.73;;;;;;;8.63;75.91;96631.53;4990004;28;20169;-67
2023/04/19 00:21:52;;;;;;;14.50;12.93;;;;;;;8.68;75.45;96632.22;4989867;28;20794;-67
2023/04/19 00:24:17;;;;;;;15.10;12.10;;;;;;;8.68;75.41;96634.84;4990182;28;20681;-68
2023/04/19 00:26:43;;;;;;;16.53;12.10;;;;;;;8.81;74.60;96637.03;4989518;28;20201;-67
2023/04/19 00:29:09;;;;;;;14.23;11.67;;;;;;;8.74;74.75;96630.31;4989670;28;20713;-67
2023/04/19 00:31:35;;;;;;;12.40;11.10;;;;;;;8.69;75.59;96636.56;4989345;28;20701;-68
2023/04/19 00:34:00;;;;;;;13.93;11.33;;;;;;;8.69;75.04;96631.31;4989813;28;20416;-67
2023/04/19 00:36:26;;;;;;;13.00;11.53;;;;;;;8.78;75.41;96632.78;4989519;28;20165;-69
2023/04/19 00:38:51;;;;;;;14.67;11.27;;;;;;;8.62;75.13;96632.44;4989954;28;20615;-67
2023/04/19 00:41:17;;;;;;;11.80;10.60;;;;;;;8.65;74.95;96629.72;4989431;28;20307;-67
2023/04/19 00:43:42;;;;;;;13.47;12.10;;;;;;;8.60;75.40;96625.53;4989568;28;20650;-67
2023/04/19 00:46:08;;;;;;;14.00;11.13;;;;;;;8.58;76.03;96620.34;4989282;28;20181;-67
2023/04/19 00:48:37;;;;;;;13.63;11.80;;;;;;;8.59;75.94;96626.44;4989537;28;20200;-67
2023/04/19 00:51:03;;;;;;;14.10;12.03;;;;;;;8.59;75.82;96618.59;4989392;28;20212;-67
2023/04/19 00:53:29;;;;;;;13.27;11.87;;;;;;;8.59;75.63;96608.97;4989278;28;20482;-67
2023/04/19 00:55:59;;;;;;;13.97;12.00;;;;;;;8.63;75.42;96610.59;4989072;28;20517;-67
2023/04/19 00:58:27;;;;;;;13.97;12.57;;;;;;;8.61;75.29;96611.53;4989256;28;20487;-67
2023/04/19 01:00:52;;;;;;;15.47;12.67;;;;;;;8.56;75.92;96605.63;4989413;28;20921;-67
2023/04/19 01:03:19;;;;;;;16.73;12.70;;;;;;;8.53;76.20;96608.31;4989317;28;20408;-67
2023/04/19 01:05:44;;;;;;;15.87;11.77;;;;;;;8.53;75.70;96600.47;4988877;28;20547;-66
2023/04/19 01:08:09;;;;;;;14.80;12.87;;;;;;;8.33;76.30;96606.31;4988862;28;20483;-67
2023/04/19 01:10:35;;;;;;;14.70;13.20;;;;;;;8.54;76.09;96604.81;4989166;28;20634;-67
2023/04/19 01:13:00;;;;;;;14.50;12.60;;;;;;;8.55;75.77;96607.38;4988922;28;20253;-66
2023/04/19 01:15:26;;;;;;;14.83;13.20;;;;;;;8.43;76.76;96606.03;4988990;28;20165;-67
2023/04/19 01:17:51;;;;;;;16.60;14.17;;;;;;;8.50;76.16;96596.19;4988659;28;20169;-69
2023/04/19 01:20:16;;;;;;;17.03;13.57;;;;;;;8.43;76.20;96597.28;4988856;28;20749;-66
2023/04/19 01:22:42;;;;;;;18.80;15.50;;;;;;;8.36;76.14;96601.84;4988734;28;20193;-67
2023/04/19 01:25:08;;;;;;;20.53;14.77;;;;;;;8.37;76.82;96602.72;4988648;28;20173;-66
2023/04/19 01:27:33;;;;;;;17.13;14.20;;;;;;;8.27;76.40;96595.16;4986533;28;20209;-67
2023/04/19 01:29:59;;;;;;;16.87;13.70;;;;;;;8.26;76.60;96596.03;4988486;28;20539;-67
2023/04/19 01:32:25;;;;;;;18.00;13.60;;;;;;;8.39;76.65;96591.28;4988310;28;20192;-67
2023/04/19 01:34:54;;;;;;;17.37;15.50;;;;;;;8.39;76.41;96585.22;4988570;28;20173;-67
2023/04/19 01:37:19;;;;;;;15.13;12.30;;;;;;;8.41;76.90;96592.13;4988359;28;20169;-67
2023/04/19 01:39:45;;;;;;;15.80;13.20;;;;;;;8.58;75.63;96586.34;4988542;28;20514;-67
2023/04/19 01:42:10;;;;;;;16.67;13.50;;;;;;;8.60;76.42;96587.16;4988265;28;20203;-68
2023/04/19 01:44:35;;;;;;;15.07;12.60;;;;;;;8.58;75.76;96588.13;4988437;28;20646;-67
2023/04/19 01:47:03;;;;;;;15.50;13.87;;;;;;;8.55;75.83;96582.97;4987851;28;20231;-66
2023/04/19 01:49:29;;;;;;;14.67;13.10;;;;;;;8.51;75.90;96579.59;4988435;28;20553;-68
2023/04/19 01:51:54;;;;;;;16.03;13.33;;;;;;;8.40;76.80;96579.09;4987690;28;20436;-68
2023/04/19 01:54:19;;;;;;;20.60;14.43;;;;;;;8.32;77.49;96574.09;4988375;28;20204;-68
2023/04/19 01:56:45;;;;;;;18.57;15.60;;;;;;;8.39;77.25;96579.97;4987831;28;20281;-68
2023/04/19 01:59:10;;;;;;;16.20;14.47;;;;;;;8.24;77.93;96571.72;4988247;28;20209;-68
2023/04/19 02:01:35;;;;;;;18.43;14.03;;;;;;;8.34;77.40;96576.63;4988204;28;20201;-68
2023/04/19 02:04:02;;;;;;;20.73;16.10;;;;;;;8.38;77.78;96573.03;4988091;28;20181;-67
2023/04/19 02:06:27;;;;;;;17.83;14.93;;;;;;;8.20;77.65;96570.09;4987828;28;20448;-67
2023/04/19 02:08:53;;;;;;;17.57;14.53;;;;;;;8.34;77.69;96566.19;4987982;28;20446;-67
2023/04/19 02:11:18;;;;;;;17.43;15.07;;;;;;;8.43;77.25;96565.91;4987956;28;20197;-68
2023/04/19 02:13:44;;;;;;;18.57;16.30;;;;;;;8.28;77.15;96559.41;4987717;28;20211;-68
2023/04/19 02:16:10;;;;;;;19.23;15.63;;;;;;;8.48;77.50;96566.63;4987688;28;20196;-68
2023/04/19 02:18:37;;;;;;;20.57;15.67;;;;;;;8.45;77.11;96569.34;4987762;28;20169;-67
2023/04/19 02:21:03;;;;;;;18.40;16.37;;;;;;;8.57;76.99;96563.69;4987662;28;20833;-68
2023/04/19 02:23:29;;;;;;;18.33;15.97;;;;;;;8.37;77.05;96555.63;4987495;28;20464;-68
2023/04/19 02:25:55;;;;;;;17.20;14.90;;;;;;;8.32;76.95;96552.31;4987487;28;20419;-68
2023/04/19 02:28:20;;;;;;;18.53;16.17;;;;;;;8.59;76.84;96554.03;4987716;28;20200;-68
2023/04/19 02:30:46;;;;;;;18.40;16.40;;;;;;;8.50;76.06;96561.34;4987573;28;20173;-68
2023/04/19 02:33:11;;;;;;;20.07;15.90;;;;;;;8.22;78.01;96547.38;4988234;28;20209;-68
2023/04/19 02:35:37;;;;;;;20.80;16.03;;;;;;;8.42;76.87;96552.00;4986297;28;20202;-68
2023/04/19 02:38:03;;;;;;;18.63;16.43;;;;;;;8.42;77.28;96558.97;4987816;28;20169;-68
2023/04/19 02:40:29;;;;;;;22.73;18.20;;;;;;;8.46;76.41;96552.75;4987498;28;20176;-68
2023/04/19 02:42:55;;;;;;;18.77;16.00;;;;;;;8.53;76.02;96551.66;4987604;28;20428;-69
2023/04/19 02:45:20;;;;;;;19.93;16.03;;;;;;;8.37;77.29;96550.41;4987771;28;20975;-68
2023/04/19 02:47:46;;;;;;;20.67;16.47;;;;;;;8.33;76.67;96538.34;4987368;28;20207;-66
2023/04/19 02:50:15;;;;;;;23.87;16.80;;;;;;;8.28;77.63;96541.94;4987639;28;20169;-69
2023/04/19 02:52:40;;;;;;;18.07;15.67;;;;;;;8.48;76.70;96535.25;4987673;28;20189;-68
2023/04/19 02:55:06;;;;;;;19.60;15.67;;;;;;;8.54;76.04;96540.25;4987620;28;20412;-67
2023/04/19 02:57:31;;;;;;;23.43;14.97;;;;;;;8.56;76.53;96532.38;4987367;28;20196;-67
2023/04/19 02:59:57;;;;;;;22.87;17.40;;;;;;;8.50;76.57;96536.03;4987633;28;20282;-67
2023/04/19 03:02:23;;;;;;;19.67;15.80;;;;;;;8.55;76.36;96533.25;4988371;28;20246;-67
2023/04/19 03:04:49;;;;;;;23.57;17.43;;;;;;;8.45;76.44;96532.72;4991824;28;20427;-68
2023/04/19 03:07:15;;;;;;;21.47;16.03;;;;;;;8.40;77.10;96535.50;4991362;28;20455;-68
2023/04/19 03:09:40;;;;;;;18.87;16.87;;;;;;;8.37;76.56;96534.72;4991726;28;20169;-68
2023/04/19 03:12:06;;;;;;;19.70;17.27;;;;;;;8.28;77.54;96536.72;4991194;28;20813;-68
2023/04/19 03:14:35;;;;;;;22.70;17.80;;;;;;;8.28;76.46;96535.88;4991453;28;20173;-68
2023/04/19 03:17:01;;;;;;;22.03;17.90;;;;;;;8.24;77.20;96527.28;4990947;28;21210;-68
2023/04/19 03:19:26;;;;;;;23.27;18.00;;;;;;;8.19;77.40;96523.94;4991154;28;20495;-68
2023/04/19 03:21:51;;;;;;;22.20;17.43;;;;;;;8.07;78.06;96517.34;4990978;28;20424;-68
2023/04/19 03:24:30;;;;;;;21.40;18.70;;;;;;;8.03;78.20;96521.00;4991078;28;20908;-68
2023/04/19 03:26:56;;;;;;;21.27;17.10;;;;;;;8.18;77.08;96526.63;4990574;28;20251;-68
2023/04/19 03:29:22;;;;;;;26.73;20.33;;;;;;;8.16;76.96;96517.97;4991139;28;20838;-67
2023/04/19 03:31:47;;;;;;;22.47;17.60;;;;;;;8.08;78.01;96523.44;4990516;28;20197;-67
2023/04/19 03:34:13;;;;;;;22.53;16.27;;;;;;;8.12;77.07;96516.34;4990741;28;20179;-68
2023/04/19 03:36:39;;;;;;;21.43;17.27;;;;;;;8.07;76.96;96512.13;4990549;28;20173;-68
2023/04/19 03:39:04;;;;;;;20.87;17.17;;;;;;;8.11;77.69;96517.28;4990572;28;20190;-68
2023/04/19 03:41:30;;;;;;;22.13;18.90;;;;;;;8.09;77.26;96514.69;4990525;28;20527;-68
2023/04/19 03:43:57;;;;;;;23.03;18.40;;;;;;;8.04;77.52;96514.00;4990733;28;20169;-68
2023/04/19 03:46:22;;;;;;;23.77;18.53;;;;;;;7.97;77.62;96517.72;4990613;28;20172;-68
2023/04/19 03:48:48;;;;;;;23.40;18.87;;;;;;;8.17;77.02;96519.66;4990443;28;20465;-67
2023/04/19 03:51:14;;;;;;;23.53;18.90;;;;;;;7.97;78.33;96507.25;4990563;28;20254;-68
2023/04/19 03:53:40;;;;;;;23.93;18.83;;;;;;;7.96;78.07;96514.25;4990630;28;20181;-67
2023/04/19 03:56:06;;;;;;;26.40;18.40;;;;;;;8.07;77.69;96509.50;4990256;28;20909;-68
2023/04/19 03:58:31;;;;;;;21.23;17.27;;;;;;;8.16;77.91;96510.13;4990770;28;20172;-68
2023/04/19 04:00:58;;;;;;;22.87;18.63;;;;;;;8.11;78.02;96509.44;4990700;28;20212;-68
2023/04/19 04:03:23;;;;;;;24.27;17.57;;;;;;;8.30;76.08;96504.44;4990220;28;20192;-68
2023/04/19 04:05:49;;;;;;;21.13;16.40;;;;;;;8.26;76.86;96501.06;4990143;28;20444;-68
2023/04/19 04:08:14;;;;;;;19.13;17.03;;;;;;;8.11;77.77;96505.06;4990159;28;20201;-68
2023/04/19 04:10:40;;;;;;;23.70;17.47;;;;;;;8.13;77.22;96507.63;4990180;28;20534;-67
2023/04/19 04:13:05;;;;;;;21.07;17.43;;;;;;;8.17;77.12;96506.59;4989920;28;20169;-66
2023/04/19 04:15:30;;;;;;;23.20;18.77;;;;;;;8.25;77.16;96502.84;4990210;28;20658;-67
2023/04/19 04:17:56;;;;;;;20.90;17.23;;;;;;;8.17;77.05;96509.22;4989559;28;20169;-68
2023/04/19 04:20:21;;;;;;;23.27;16.83;;;;;;;8.39;75.97;96499.75;4990173;28;20165;-66
2023/04/19 04:22:47;;;;;;;24.23;17.53;;;;;;;8.45;75.84;96507.41;4989990;28;20244;-68
2023/04/19 04:25:14;;;;;;;21.40;17.67;;;;;;;8.20;76.43;96507.38;4990050;28;20236;-66
2023/04/19 04:27:43;;;;;;;19.60;17.50;;;;;;;8.07;76.87;96508.66;4990262;28;20351;-66
2023/04/19 04:30:09;;;;;;;24.80;18.20;;;;;;;8.01;77.12;96512.34;4989659;28;20423;-66
2023/04/19 04:32:36;;;;;;;23.37;17.37;;;;;;;8.11;77.29;96507.66;4989469;28;20933;-66
2023/04/19 04:35:02;;;;;;;21.53;17.57;;;;;;;8.07;76.80;96512.13;4989781;28;20443;-66
2023/04/19 04:37:27;;;;;;;25.80;16.90;;;;;;;8.26;76.21;96511.53;4989432;28;20404;-67
2023/04/19 04:39:52;;;;;;;21.97;16.93;;;;;;;8.18;75.90;96506.56;4983704;28;20437;-67
2023/04/19 04:42:20;;;;;;;20.40;15.17;;;;;;;8.12;77.25;96509.34;4988345;28;20233;-67
2023/04/19 04:44:46;;;;;;;22.10;16.63;;;;;;;8.15;77.10;96511.00;4987990;28;20187;-67
2023/04/19 04:47:14;;;;;;;21.13;16.90;;;;;;;8.28;76.05;96509.72;4988785;28;20456;-67
2023/04/19 04:49:40;;;;;;;21.87;17.67;;;;;;;8.43;76.01;96503.16;4989095;28;20243;-68
2023/04/19 04:52:07;;;;;;;21.70;17.10;;;;;;;8.51;75.01;96511.59;4989245;28;20933;-68
2023/04/19 04:54:33;;;;;;;22.00;16.07;;;;;;;8.53;75.64;96504.56;4988203;28;20191;-67
2023/04/19 04:56:59;;;;;;;19.27;14.93;;;;;;;8.57;74.70;96511.38;4987277;28;20420;-68
2023/04/19 04:59:25;;;;;;;20.13;16.47;;;;;;;8.51;75.33;96514.22;4989099;28;20288;-68
2023/04/19 05:01:51;;;;;;;20.37;17.40;;;;;;;8.56;75.72;96508.84;4989189;28;20995;-67
2023/04/19 05:04:16;;;;;;;25.33;17.60;;;;;;;8.69;74.41;96510.97;4988782;28;20183;-66
2023/04/19 05:06:43;;;;;;;19.77;15.03;;;;;;;8.83;73.97;96512.25;4978110;28;20204;-68
2023/04/19 05:09:09;;;;;;;18.03;15.30;;;;;;;8.77;73.72;96508.09;4988975;28;20207;-67
2023/04/19 05:11:34;;;;;;;23.10;16.93;;;;;;;8.66;74.67;96518.06;4988596;28;20934;-67
2023/04/19 05:14:01;;;;;;;22.40;16.30;;;;;;;8.74;73.49;96513.44;4988780;28;20471;-67
2023/04/19 05:16:26;;;;;;;23.13;15.63;;;;;;;8.72;74.24;96511.75;4988294;28;20173;-67
2023/04/19 05:18:51;;;;;;;20.53;15.80;;;;;;;8.79;73.71;96513.28;4986297;28;20431;-67
2023/04/19 05:21:23;;;;;;;22.97;17.33;;;;;;;8.58;74.62;96509.63;4983840;28;20201;-68
2023/04/19 05:23:48;;;;;;;23.67;15.10;;;;;;;8.33;76.08;96512.19;4984150;28;20196;-68
2023/04/19 05:26:14;;;;;;;21.30;17.93;;;;;;;8.38;75.85;96515.50;4984568;28;20428;-68
2023/04/19 05:28:41;;;;;;;21.73;15.90;;;;;;;8.47;75.68;96513.47;4978286;28;20717;-68
2023/04/19 05:31:10;;;;;;;21.60;16.53;;;;;;;8.34;75.21;96514.75;4969057;28;20456;-68
2023/04/19 05:33:36;;;;;;;27.00;16.80;;;;;;;8.37;75.27;96514.66;4972835;28;20480;-68
2023/04/19 05:36:01;;;;;;;24.33;17.07;;;;;;;8.41;74.79;96513.69;4977811;28;20838;-68
2023/04/19 05:38:26;;;;;;;22.10;15.50;;;;;;;8.49;74.97;96518.66;4981070;28;20650;-68
2023/04/19 05:40:52;;;;;;;20.40;15.90;;;;;;;8.24;75.62;96518.56;4980634;28;20197;-68
2023/04/19 05:43:17;;;;;;;20.67;16.07;;;;;;;8.33;75.62;96517.41;4972548;28;20787;-68
2023/04/19 05:45:43;;;;;;;21.37;15.67;;;;;;;8.59;74.28;96513.94;4980834;28;20177;-69
2023/04/19 05:48:08;;;;;;;22.37;17.13;;;;;;;8.46;74.52;96517.00;4983059;28;20211;-68
2023/04/19 05:50:35;;;;;;;21.70;16.93;;;;;;;8.66;74.42;96520.69;4976490;28;20789;-68
2023/04/19 05:53:01;;;;;;;23.17;16.17;;;;;;;8.68;74.06;96518.88;4977481;28;20518;-68
2023/04/19 05:55:27;;;;;;;20.50;15.40;;;;;;;8.67;73.19;96515.41;4976462;28;20514;-68
2023/04/19 05:57:52;;;;;;;19.67;16.20;;;;;;;8.72;73.31;96515.25;4980893;28;21220;-68
2023/04/19 06:00:18;;;;;;;20.40;15.73;;;;;;;8.74;72.76;96523.03;4979488;28;20299;-68
2023/04/19 06:02:43;;;;;;;22.73;17.70;;;;;;;8.74;73.11;96520.41;4978078;28;20217;-68
2023/04/19 06:05:09;;;;;;;20.70;17.47;;;;;;;8.81;72.51;96517.56;4977860;28;20181;-67
2023/04/19 06:07:35;;;;;;;32.67;18.37;;;;;;;8.87;72.01;96519.94;4974466;28;20201;-67
2023/04/19 06:10:00;;;;;;;32.77;20.43;;;;;;;8.88;72.81;96520.78;4977028;28;20290;-68
2023/04/19 06:12:26;;;;;;;21.10;16.77;;;;;;;8.73;72.77;96522.19;4977072;28;20232;-67
2023/04/19 06:14:51;;;;;;;26.63;16.50;;;;;;;8.83;73.14;96523.56;4978597;28;20280;-67
2023/04/19 06:17:22;;;;;;;22.37;15.70;;;;;;;8.92;72.50;96525.00;4975223;28;20212;-68
2023/04/19 06:19:47;;;;;;;24.03;19.70;;;;;;;8.86;72.53;96526.09;4982047;28;20189;-67
2023/04/19 06:22:13;;;;;;;24.27;17.13;;;;;;;8.61;73.45;96533.06;4971170;28;20467;-68
2023/04/19 06:24:38;;;;;;;21.03;15.83;;;;;;;8.47;74.03;96531.75;4980772;28;20197;-68
2023/04/19 06:27:04;;;;;;;21.20;15.87;;;;;;;8.64;73.17;96527.72;4976787;28;20772;-67
2023/04/19 06:29:29;;;;;;;24.10;16.20;;;;;;;8.73;72.92;96519.56;4975155;28;20552;-67
2023/04/19 06:31:55;;;;;;;18.50;14.87;;;;;;;8.62;73.82;96525.19;4974577;28;20210;-66
2023/04/19 06:34:20;;;;;;;24.77;15.80;;;;;;;8.42;73.49;96532.84;4980207;28;20196;-67
2023/04/19 06:36:46;;;;;;;20.00;15.50;;;;;;;8.48;73.45;96524.78;4976397;28;20251;-67
2023/04/19 06:39:11;;;;;;;18.00;14.47;;;;;;;8.28;74.16;96531.47;4974524;28;20706;-67
2023/04/19 06:41:36;;;;;;;22.73;15.17;;;;;;;8.30;73.93;96530.59;4976119;28;21468;-66
2023/04/19 06:44:02;;;;;;;24.37;15.90;;;;;;;8.34;73.53;96529.56;4978368;28;20568;-68
2023/04/19 06:46:27;;;;;;;20.10;15.33;;;;;;;8.36;73.45;96533.00;4978730;28;20208;-69
2023/04/19 06:48:53;;;;;;;21.27;15.10;;;;;;;8.51;72.99;96527.31;4983830;28;20220;-67
2023/04/19 06:51:18;;;;;;;22.33;15.10;;;;;;;8.49;72.75;96526.50;4985185;28;20202;-65
2023/04/19 06:53:44;;;;;;;21.97;17.20;;;;;;;8.68;72.48;96532.81;4983508;28;20292;-69
2023/04/19 06:56:09;;;;;;;18.80;15.47;;;;;;;8.52;72.98;96529.00;4982516;28;20268;-66
2023/04/19 06:58:35;;;;;;;23.23;17.20;;;;;;;8.50;72.50;96536.03;4977120;28;20199;-65
2023/04/19 07:01:02;;;;;;;22.93;16.37;;;;;;;8.39;73.10;96528.53;4983299;28;20197;-66
2023/04/19 07:03:28;;;;;;;19.30;13.73;;;;;;;8.38;72.97;96520.72;4985147;28;20206;-67
2023/04/19 07:05:55;;;;;;;21.37;16.10;;;;;;;8.54;72.87;96521.09;4982135;28;20775;-67
2023/04/19 07:08:21;;;;;;;21.07;15.70;;;;;;;8.43;72.54;96530.19;4983929;28;20236;-66
2023/04/19 07:10:47;;;;;;;18.10;14.93;;;;;;;8.31;73.21;96524.44;4985473;28;20440;-66
2023/04/19 07:13:12;;;;;;;18.83;15.57;;;;;;;8.42;72.67;96522.38;4984056;28;20435;-67
2023/04/19 07:15:38;;;;;;;23.17;15.30;;;;;;;8.49;72.33;96523.88;4981627;28;20191;-67
2023/04/19 07:18:04;;;;;;;19.50;17.13;;;;;;;8.74;71.93;96526.53;4982554;28;20188;-66
2023/04/19 07:20:30;;;;;;;21.43;14.70;;;;;;;8.83;70.85;96522.72;4983327;28;20277;-66
2023/04/19 07:22:59;;;;;;;23.13;15.50;;;;;;;8.74;72.52;96521.28;4976438;28;20557;-67
2023/04/19 07:25:25;;;;;;;23.13;14.97;;;;;;;8.78;72.10;96515.03;4979107;28;20548;-67
2023/04/19 07:27:55;;;;;;;16.60;13.33;;;;;;;8.96;72.35;96512.69;4984414;28;20599;-67
2023/04/19 07:30:21;;;;;;;18.63;14.07;;;;;;;8.88;72.48;96526.00;4976671;28;20886;-66
2023/04/19 07:32:46;;;;;;;19.40;14.20;;;;;;;8.91;71.95;96518.06;4975178;28;20439;-67
2023/04/19 07:35:12;;;;;;;18.00;13.43;;;;;;;8.98;72.07;96510.88;4971250;28;20182;-66
2023/04/19 07:37:37;;;;;;;16.37;14.23;;;;;;;9.14;70.66;96512.00;4975350;28;20181;-67
2023/04/19 07:40:04;;;;;;;15.60;13.90;;;;;;;9.02;72.02;96505.44;4974311;28;20236;-67
2023/04/19 07:42:29;;;;;;;17.63;14.40;;;;;;;9.01;70.86;96500.28;4973956;28;20973;-68
2023/04/19 07:44:55;;;;;;;20.00;14.60;;;;;;;8.92;72.03;96498.84;4982445;28;20439;-67
2023/04/19 07:47:20;;;;;;;18.77;14.20;;;;;;;9.00;72.22;96501.16;4979103;28;20213;-68
2023/04/19 07:49:46;;;;;;;17.37;13.53;;;;;;;9.08;70.32;96505.22;4984699;28;20185;-66
2023/04/19 07:52:11;;;;;;;50.13;18.80;;;;;;;9.23;70.44;96500.34;4981168;28;20278;-67
2023/04/19 07:54:38;;;;;;;23.47;15.27;;;;;;;9.12;70.48;96503.38;4975889;28;20211;-67
2023/04/19 07:57:04;;;;;;;22.47;12.97;;;;;;;9.00;70.60;96502.06;4979250;28;20181;-67
2023/04/19 07:59:32;;;;;;;20.57;16.13;;;;;;;8.97;70.97;96504.75;4982338;28;20839;-67
2023/04/19 08:01:57;;;;;;;20.40;15.60;;;;;;;9.01;71.16;96495.03;4983871;28;20203;-66
2023/04/19 08:04:23;;;;;;;16.33;13.73;;;;;;;9.22;70.37;96496.88;4984719;28;20436;-67
2023/04/19 08:06:48;;;;;;;19.33;14.20;;;;;;;9.26;69.95;96490.63;4975059;28;20177;-66
2023/04/19 08:09:14;;;;;;;18.33;13.73;;;;;;;9.19;69.73;96494.38;4979553;28;20963;-67
2023/04/19 08:11:39;;;;;;;18.37;14.17;;;;;;;9.35;69.76;96493.78;4985293;28;20227;-68
2023/04/19 08:14:05;;;;;;;18.60;14.47;;;;;;;9.52;68.96;96483.56;4977447;28;20531;-66
2023/04/19 08:16:30;;;;;;;18.60;14.20;;;;;;;9.61;68.60;96487.56;4978394;28;20177;-67
2023/04/19 08:18:55;;;;;;;21.63;15.70;;;;;;;9.66;67.55;96490.84;4982941;28;20657;-68
2023/04/19 08:21:21;;;;;;;33.13;14.93;;;;;;;9.38;68.88;96486.69;4984299;28;20613;-67
2023/04/19 08:23:46;;;;;;;20.53;14.50;;;;;;;9.48;69.04;96484.56;4975305;28;20181;-67
2023/04/19 08:26:12;;;;;;;18.90;13.80;;;;;;;9.48;68.60;96489.81;4974479;28;20185;-67
2023/04/19 08:28:37;;;;;;;19.30;14.77;;;;;;;9.52;68.28;96481.78;4981587;28;20220;-67
2023/04/19 08:31:09;;;;;;;18.80;14.60;;;;;;;9.75;67.73;96482.63;4976516;28;20217;-65
2023/04/19 08:33:34;;;;;;;19.30;13.30;;;;;;;9.71;67.60;96483.69;4985230;28;20743;-67
2023/04/19 08:36:00;;;;;;;19.40;13.07;;;;;;;9.74;67.91;96483.56;4982250;28;20507;-66
2023/04/19 08:38:25;;;;;;;16.97;13.80;;;;;;;9.74;67.25;96475.69;4973202;28;20714;-66
2023/04/19 08:40:54;;;;;;;18.93;14.70;;;;;;;9.61;67.53;96488.41;4979000;28;20497;-66
2023/04/19 08:43:20;;;;;;;15.97;13.10;;;;;;;9.62;67.61;96482.28;4978939;28;20178;-68
2023/04/19 08:45:49;;;;;;;18.77;14.27;;;;;;;9.63;67.15;96483.97;4984325;28;20424;-66
2023/04/19 08:48:16;;;;;;;19.00;13.40;;;;;;;9.51;67.47;96484.44;4978670;28;20476;-67
2023/04/19 08:50:44;;;;;;;20.57;15.00;;;;;;;9.43;67.70;96482.13;4971407;28;20472;-67
2023/04/19 08:53:10;;;;;;;19.93;13.70;;;;;;;9.37;68.80;96471.03;4977409;28;20432;-67
2023/04/19 08:55:37;;;;;;;21.37;14.43;;;;;;;9.57;67.77;96470.25;4979515;28;20441;-67
2023/04/19 08:58:03;;;;;;;21.57;14.43;;;;;;;9.65;67.53;96465.56;4984762;28;20177;-68
2023/04/19 09:00:31;;;;;;;22.30;13.37;;;;;;;9.76;67.28;96463.38;4978816;28;20439;-67
2023/04/19 09:02:57;;;;;;;15.87;13.37;;;;;;;9.89;66.60;96461.97;4973923;28;20449;-67
2023/04/19 09:05:23;;;;;;;25.80;14.20;;;;;;;9.94;66.16;96467.91;4975403;28;20444;-68
2023/04/19 09:07:49;;;;;;;21.73;13.90;;;;;;;9.72;66.75;96457.41;4978474;28;20467;-67
2023/04/19 09:10:17;;;;;;;18.77;13.13;;;;;;;9.83;67.29;96459.63;4978260;28;20632;-67
2023/04/19 09:12:58;;;;;;;16.90;14.37;;;;;;;10.14;65.81;96448.72;4980390;28;20197;-67
2023/04/19 09:15:36;;;;;;;23.27;14.93;;;;;;;10.24;64.75;96448.34;4984925;28;21003;-68
2023/04/19 09:18:09;;;;;;;21.30;13.90;;;;;;;10.65;64.46;96443.97;4972407;28;20420;-68
2023/04/19 09:20:36;;;;;;;17.03;14.50;;;;;;;10.38;63.82;96446.03;4975096;28;20458;-67
2023/04/19 09:23:04;;;;;;;19.30;14.10;;;;;;;10.50;63.75;96445.50;4977309;28;20471;-67
2023/04/19 09:25:30;;;;;;;16.10;12.90;;;;;;;10.14;65.34;96450.50;4975103;28;20436;-67
2023/04/19 09:28:07;;;;;;;15.87;13.17;;;;;;;10.50;64.64;96448.13;4987841;28;20460;-68
2023/04/19 09:30:33;;;;;;;20.67;14.17;;;;;;;10.86;63.84;96436.94;4979843;28;20184;-67
2023/04/19 09:32:58;;;;;;;20.60;14.70;;;;;;;10.77;63.41;96429.47;4981364;28;20457;-67
2023/04/19 09:35:42;;;;;;;16.60;12.93;;;;;;;11.01;62.41;96424.91;4972678;28;20640;-67
2023/04/19 09:38:09;;;;;;;16.47;13.60;;;;;;;10.98;62.99;96428.53;4981888;28;20169;-66
2023/04/19 09:40:35;;;;;;;16.93;14.57;;;;;;;10.65;64.14;96417.72;4980913;28;20471;-66
2023/04/19 09:43:02;;;;;;;17.53;13.47;;;;;;;10.96;62.80;96417.25;4980587;28;20492;-66
2023/04/19 09:45:40;;;;;;;19.47;13.67;;;;;;;10.80;63.30;96416.22;4977066;28;20192;-70
2023/04/19 09:48:07;;;;;;;16.97;13.17;;;;;;;10.86;62.71;96415.94;4974883;28;20488;-67
2023/04/19 09:50:33;;;;;;;18.43;14.93;;;;;;;10.85;63.34;96408.16;4976777;28;20436;-67
2023/04/19 09:52:59;;;;;;;18.53;15.17;;;;;;;10.69;64.15;96411.44;4982251;28;20487;-68
2023/04/19 09:55:25;;;;;;;18.40;14.07;;;;;;;10.64;64.11;96409.94;4982949;28;20186;-67
2023/04/19 09:57:52;;;;;;;21.30;14.67;;;;;;;10.78;64.08;96410.19;4975924;28;20431;-67
2023/04/19 10:00:20;;;;;;;16.77;13.60;;;;;;;10.54;64.58;96399.00;4971840;28;20482;-68
2023/04/19 10:02:53;;;;;;;17.67;13.70;;;;;;;10.66;64.43;96402.84;4976132;28;20486;-67
2023/04/19 10:05:20;;;;;;;17.90;13.50;;;;;;;10.74;64.68;96391.06;4974693;28;20961;-67
2023/04/19 10:07:46;;;;;;;20.80;14.07;;;;;;;10.75;64.31;96395.44;4978228;28;20460;-66
2023/04/19 10:10:15;;;;;;;20.30;14.17;;;;;;;11.01;63.02;96390.78;4982391;28;20523;-66
2023/04/19 10:12:43;;;;;;;19.27;15.33;;;;;;;11.22;62.75;96392.41;4977405;28;20957;-68
2023/04/19 10:15:12;;;;;;;16.00;13.33;;;;;;;11.17;62.70;96383.03;4973338;28;20458;-67
2023/04/19 10:17:38;;;;;;;17.00;13.30;;;;;;;11.26;62.74;96390.47;4978416;28;20523;-68
2023/04/19 10:20:08;;;;;;;15.67;13.00;;;;;;;11.20;62.63;96386.38;4986601;28;20526;-68
2023/04/19 10:22:36;;;;;;;30.00;15.70;;;;;;;11.31;62.08;96385.84;4984312;28;20208;-66
2023/04/19 10:25:08;;;;;;;19.40;14.87;;;;;;;11.29;62.40;96378.97;4980023;28;20792;-70
2023/04/19 10:27:34;;;;;;;18.03;14.93;;;;;;;11.05;63.14;96384.44;4984507;28;20460;-71
2023/04/19 10:30:02;;;;;;;19.93;15.60;;;;;;;11.23;63.14;96382.75;4985564;28;20447;-66
2023/04/19 10:32:35;;;;;;;21.10;14.53;;;;;;;10.81;63.99;96376.75;4976618;28;20220;-68
2023/04/19 10:35:06;;;;;;;19.87;15.70;;;;;;;10.83;64.14;96379.31;4979854;28;20475;-68
2023/04/19 10:37:31;;;;;;;21.03;14.23;;;;;;;10.94;63.94;96381.47;4985033;28;20579;-68
2023/04/19 10:39:57;;;;;;;19.93;14.30;;;;;;;11.08;63.95;96373.81;4985080;28;20514;-68
2023/04/19 10:42:22;;;;;;;14.60;13.10;;;;;;;11.18;63.39;96369.81;4976843;28;20228;-68
2023/04/19 10:45:26;;;;;;;17.93;14.37;;;;;;;11.45;62.18;96366.81;4984444;28;20181;-69
2023/04/19 10:47:52;;;;;;;17.30;14.50;;;;;;;11.27;61.70;96365.94;4973745;28;20243;-68
2023/04/19 10:50:17;;;;;;;16.10;12.60;;;;;;;11.30;61.83;96362.31;4982884;28;20777;-67
2023/04/19 10:52:43;;;;;;;18.80;12.27;;;;;;;11.45;61.21;96353.66;4980776;28;20300;-69
2023/04/19 10:55:14;;;;;;;16.50;13.43;;;;;;;11.51;60.55;96349.91;4980834;28;20176;-67
2023/04/19 10:58:11;;;;;;;18.97;12.23;;;;;;;11.59;60.51;96348.59;4979488;28;20191;-67
2023/04/19 11:00:37;;;;;;;16.63;11.70;;;;;;;11.62;59.87;96350.22;4977972;28;20450;-69
2023/04/19 11:03:41;;;;;;;14.07;10.00;;;;;;;11.56;59.98;96342.66;4976931;28;21149;-69
2023/04/19 11:06:25;;;;;;;15.30;10.57;;;;;;;11.58;59.97;96343.44;4976887;28;20192;-68
2023/04/19 11:08:52;;;;;;;23.83;12.50;;;;;;;11.60;59.16;96345.06;4975615;28;20536;-69
2023/04/19 11:11:19;;;;;;;13.13;10.57;;;;;;;11.31;60.38;96333.31;4975297;28;20941;-69
2023/04/19 11:13:47;;;;;;;34.03;11.20;;;;;;;11.36;60.00;96331.34;4983821;28;20469;-69
2023/04/19 11:16:12;;;;;;;15.80;11.27;;;;;;;11.54;59.13;96340.09;4981190;28;20458;-69
2023/04/19 11:18:37;;;;;;;10.50;9.23;;;;;;;11.52;59.37;96328.78;4978750;28;20425;-68
2023/04/19 11:21:04;;;;;;;17.17;11.20;;;;;;;11.55;59.79;96323.41;4981749;28;20574;-68